Worthington, MN

4:32 PM CST on February 23, 2017 (GMT -0600)
Worthington Municipal

Weather History for KOTG - November, 2012

Change the Weather History Date:

Sunday, November 18, 2012

  Actual Average Record
Temperature  
Mean Temperature 47 °F -  
Max Temperature 57 °F 37 °F 66 °F (1999)
Min Temperature 37 °F 23 °F 4 °F (1989)
Degree Days  
Heating Degree Days 18    
Moisture  
Dew Point 29 °F    
Average Humidity 49    
Maximum Humidity 61    
Minimum Humidity 38    
Precipitation  
Precipitation 0.00 in - - ()
Sea Level Pressure  
Sea Level Pressure 30.05 in    
Wind  
Wind Speed 17 mph (South)    
Max Wind Speed 22 mph    
Max Gust Speed 30 mph    
Visibility 10 miles    
Events      
Averages and records for this station are not official NWS values.
T = Trace of Precipitation, MM = Missing Value Source: NWS Daily Summary

Daily Weather History Graph

Daily Weather History Graph

Search for Another Location

Airport or City:

Trip Planner

Search our weather history database for the weather conditions in past years. The results will help you decide how hot, cold, wet, or windy it might be!

Date:

Astronomy

Nov. 18, 2012 Rise Set
Actual Time 7:20 AM CST 4:53 PM CST
Civil Twilight 6:49 AM CST 5:25 PM CST
Nautical Twilight 6:14 AM CST 6:00 PM CST
Astronomical Twilight 5:40 AM CST 6:34 PM CST
Moon 11:46 AM CST (11/18) 10:17 PM CST (11/18)
Length of Visible Light 10h 35m
Length of Day
9h 33m
Waxing Crescent, 30% of the Moon is Illuminated
Nov 18
Waxing Crescent
Nov 20
First Quarter
Nov 28
Full
Dec 6
Last Quarter
Dec 13
New

Hourly Weather History & Observations

Time (CST) Temp. Windchill Dew Point Humidity Pressure Visibility Wind Dir Wind Speed Gust Speed Precip Events Conditions
12:15 AM 44.6 °F 37.2 °F 28.4 °F 53% 30.10 in 10.0 mi South 17.3 mph 23.0 mph N/A   Clear
12:35 AM 44.6 °F 36.4 °F 28.4 °F 53% 30.10 in 10.0 mi South 20.7 mph 29.9 mph N/A   Clear
12:55 AM 44.6 °F 36.1 °F 28.4 °F 53% 30.10 in 10.0 mi South 21.9 mph 27.6 mph N/A   Clear
1:15 AM 44.6 °F 36.4 °F 28.4 °F 53% 30.10 in 10.0 mi South 20.7 mph 26.5 mph N/A   Clear
1:55 AM 44.6 °F 36.9 °F 28.4 °F 53% 30.10 in 10.0 mi South 18.4 mph 28.8 mph N/A   Clear
2:15 AM 44.6 °F 37.2 °F 28.4 °F 53% 30.10 in 10.0 mi SSE 17.3 mph - N/A   Clear
2:35 AM 44.6 °F 37.4 °F 28.4 °F 53% 30.10 in 10.0 mi South 16.1 mph - N/A   Clear
2:55 AM 44.6 °F 37.4 °F 26.6 °F 49% 30.10 in 10.0 mi South 16.1 mph - N/A   Clear
3:15 AM 44.6 °F 36.9 °F 26.6 °F 49% 30.09 in 10.0 mi South 18.4 mph 21.9 mph N/A   Clear
3:35 AM 42.8 °F 35.1 °F 26.6 °F 53% 30.09 in 10.0 mi South 16.1 mph 21.9 mph N/A   Clear
3:55 AM 42.8 °F 34.8 °F 26.6 °F 53% 30.08 in 10.0 mi South 17.3 mph 23.0 mph N/A   Clear
4:15 AM 42.8 °F 34.8 °F 26.6 °F 53% 30.08 in 10.0 mi South 17.3 mph - N/A   Clear
4:35 AM 42.8 °F 34.8 °F 26.6 °F 53% 30.07 in 10.0 mi South 17.3 mph - N/A   Clear
4:55 AM 41.0 °F 32.5 °F 26.6 °F 57% 30.07 in 10.0 mi South 17.3 mph 27.6 mph N/A   Clear
5:15 AM 39.2 °F 30.2 °F 26.6 °F 61% 30.07 in 10.0 mi South 17.3 mph - N/A   Clear
5:35 AM 39.2 °F 30.5 °F 24.8 °F 56% 30.07 in 10.0 mi South 16.1 mph - N/A   Clear
5:55 AM 39.2 °F 30.8 °F 24.8 °F 56% 30.07 in 10.0 mi South 15.0 mph - N/A   Clear
6:15 AM 39.2 °F 31.2 °F 24.8 °F 56% 30.07 in 10.0 mi South 13.8 mph - N/A   Clear
6:35 AM 39.2 °F 32.0 °F 24.8 °F 56% 30.07 in 10.0 mi South 11.5 mph - N/A   Clear
6:55 AM 37.4 °F 30.8 °F 24.8 °F 60% 30.07 in 10.0 mi South 9.2 mph - N/A   Clear
7:15 AM 37.4 °F 30.3 °F 24.8 °F 60% 30.07 in 10.0 mi South 10.4 mph - N/A   Clear
7:35 AM 37.4 °F 30.8 °F 24.8 °F 60% 30.07 in 10.0 mi South 9.2 mph - N/A   Clear
7:55 AM 37.4 °F 30.3 °F 24.8 °F 60% 30.07 in 10.0 mi South 10.4 mph - N/A   Clear
8:15 AM 39.2 °F 32.0 °F 24.8 °F 56% 30.07 in 10.0 mi South 11.5 mph - N/A   Clear
8:35 AM 39.2 °F 31.6 °F 26.6 °F 61% 30.07 in 10.0 mi South 12.7 mph - N/A   Clear
8:55 AM 42.8 °F 35.8 °F 26.6 °F 53% 30.07 in 10.0 mi South 13.8 mph 19.6 mph N/A   Clear
9:15 AM 44.6 °F 37.8 °F 26.6 °F 49% 30.07 in 10.0 mi South 15.0 mph - N/A   Clear
9:35 AM 46.4 °F 40.4 °F 26.6 °F 46% 30.06 in 10.0 mi South 13.8 mph 26.5 mph N/A   Clear
9:55 AM 46.4 °F 40.4 °F 28.4 °F 50% 30.07 in 10.0 mi South 13.8 mph 24.2 mph N/A   Clear
10:15 AM 48.2 °F - 28.4 °F 46% 30.07 in 10.0 mi South 12.7 mph 23.0 mph N/A   Clear
10:35 AM 48.2 °F - 28.4 °F 46% 30.08 in 10.0 mi South 16.1 mph 25.3 mph N/A   Clear
10:55 AM 50.0 °F - 28.4 °F 43% 30.07 in 10.0 mi SSW 16.1 mph - N/A   Clear
11:15 AM 51.8 °F - 30.2 °F 44% 30.07 in 10.0 mi South 15.0 mph - N/A   Clear
11:35 AM 51.8 °F - 30.2 °F 44% 30.07 in 10.0 mi South 15.0 mph - N/A   Clear
11:55 AM 53.6 °F - 30.2 °F 41% 30.06 in 10.0 mi South 16.1 mph - N/A   Clear
12:15 PM 53.6 °F - 30.2 °F 41% 30.05 in 10.0 mi South 16.1 mph 21.9 mph N/A   Clear
12:35 PM 53.6 °F - 30.2 °F 41% 30.04 in 10.0 mi South 20.7 mph - N/A   Clear
12:55 PM 55.4 °F - 30.2 °F 38% 30.04 in 10.0 mi South 17.3 mph - N/A   Clear
1:15 PM 55.4 °F - 30.2 °F 38% 30.04 in 10.0 mi South 20.7 mph 24.2 mph N/A   Clear
1:35 PM 55.4 °F - 30.2 °F 38% 30.03 in 10.0 mi South 18.4 mph - N/A   Clear
2:15 PM 55.4 °F - 30.2 °F 38% 30.02 in 10.0 mi South 16.1 mph 25.3 mph N/A   Clear
2:35 PM 57.2 °F - 32.0 °F 38% 30.02 in 10.0 mi South 17.3 mph - N/A   Clear
2:55 PM 57.2 °F - 32.0 °F 38% 30.01 in 10.0 mi South 21.9 mph 25.3 mph N/A   Clear
3:15 PM 57.2 °F - 32.0 °F 38% 30.01 in 10.0 mi South 19.6 mph - N/A   Clear
3:35 PM 57.2 °F - 32.0 °F 38% 30.01 in 10.0 mi South 18.4 mph 24.2 mph N/A   Clear
3:55 PM 57.2 °F - 32.0 °F 38% 30.02 in 10.0 mi South 16.1 mph - N/A   Clear
4:15 PM 55.4 °F - 32.0 °F 41% 30.02 in 10.0 mi South 15.0 mph - N/A   Clear
4:35 PM 55.4 °F - 32.0 °F 41% 30.02 in 10.0 mi South 13.8 mph - N/A   Clear
4:55 PM 53.6 °F - 30.2 °F 41% 30.02 in 10.0 mi South 15.0 mph - N/A   Clear
5:15 PM 53.6 °F - 30.2 °F 41% 30.02 in 10.0 mi SSE 13.8 mph - N/A   Clear
5:35 PM 53.6 °F - 30.2 °F 41% 30.03 in 10.0 mi South 13.8 mph - N/A   Clear
5:55 PM 51.8 °F - 30.2 °F 44% 30.03 in 10.0 mi SSE 15.0 mph 19.6 mph N/A   Clear
6:15 PM 51.8 °F - 30.2 °F 44% 30.03 in 10.0 mi SSE 16.1 mph - N/A   Clear
6:35 PM 51.8 °F - 30.2 °F 44% 30.04 in 10.0 mi SSE 16.1 mph - N/A   Clear
6:55 PM 51.8 °F - 30.2 °F 44% 30.04 in 10.0 mi South 17.3 mph 23.0 mph N/A   Clear
7:15 PM 50.0 °F - 30.2 °F 47% 30.04 in 10.0 mi South 17.3 mph - N/A   Clear
7:35 PM 50.0 °F - 30.2 °F 47% 30.04 in 10.0 mi SSE 16.1 mph 21.9 mph N/A   Clear
7:55 PM 48.2 °F - 30.2 °F 50% 30.04 in 10.0 mi South 17.3 mph 21.9 mph N/A   Clear
8:15 PM 48.2 °F - 30.2 °F 50% 30.04 in 10.0 mi South 17.3 mph - N/A   Clear
8:35 PM 48.2 °F - 30.2 °F 50% 30.04 in 10.0 mi South 17.3 mph 21.9 mph N/A   Clear
8:55 PM 46.4 °F 39.5 °F 30.2 °F 53% 30.04 in 10.0 mi South 17.3 mph - N/A   Clear
9:15 PM 46.4 °F 39.8 °F 30.2 °F 53% 30.04 in 10.0 mi South 16.1 mph 21.9 mph N/A   Clear
9:35 PM 46.4 °F 40.1 °F 30.2 °F 53% 30.04 in 10.0 mi South 15.0 mph - N/A   Clear
9:55 PM 46.4 °F 39.8 °F 30.2 °F 53% 30.03 in 10.0 mi South 16.1 mph - N/A   Clear
10:35 PM 44.6 °F 38.1 °F 30.2 °F 57% 30.03 in 10.0 mi South 13.8 mph - N/A   Clear
10:55 PM 44.6 °F 38.1 °F 30.2 °F 57% 30.02 in 10.0 mi South 13.8 mph 19.6 mph N/A   Clear
11:15 PM 44.6 °F 38.1 °F 30.2 °F 57% 30.02 in 10.0 mi South 13.8 mph - N/A   Clear
11:55 PM 44.6 °F 37.4 °F 30.2 °F 57% 30.02 in 10.0 mi South 16.1 mph 21.9 mph N/A   Clear